createdAt,value
2019-02-11T00:00:20.100Z,977.51
2019-02-11T00:01:20.127Z,977.55
2019-02-11T00:02:20.079Z,977.54
2019-02-11T00:03:20.070Z,977.67
2019-02-11T00:04:20.084Z,977.67
2019-02-11T00:05:20.054Z,977.67
2019-02-11T00:06:20.036Z,977.70
2019-02-11T00:07:20.045Z,977.76
2019-02-11T00:08:20.018Z,977.77
2019-02-11T00:09:20.098Z,977.80
2019-02-11T00:10:19.998Z,977.81
2019-02-11T00:11:19.996Z,977.81
2019-02-11T00:12:19.976Z,977.84
2019-02-11T00:13:19.983Z,977.86
2019-02-11T00:14:19.974Z,977.94
2019-02-11T00:15:19.964Z,977.89
2019-02-11T00:16:19.941Z,977.92
2019-02-11T00:17:19.975Z,977.95
2019-02-11T00:18:19.928Z,977.98
2019-02-11T00:19:19.942Z,977.96
2019-02-11T00:20:19.890Z,977.96
2019-02-11T00:21:19.889Z,978.03
2019-02-11T00:22:19.897Z,978.03
2019-02-11T00:23:19.873Z,977.98
2019-02-11T00:24:19.856Z,977.99
2019-02-11T00:25:19.927Z,978.00
2019-02-11T00:26:19.902Z,978.07
2019-02-11T00:27:19.821Z,978.06
2019-02-11T00:28:19.841Z,978.10
2019-02-11T00:29:19.831Z,978.20
2019-02-11T00:30:19.795Z,978.17
2019-02-11T00:31:19.915Z,978.17
2019-02-11T00:32:19.763Z,978.22
2019-02-11T00:33:19.766Z,978.19
2019-02-11T00:34:19.750Z,978.24
2019-02-11T00:35:19.743Z,978.22
2019-02-11T00:36:19.751Z,978.23
2019-02-11T00:37:19.725Z,978.34
2019-02-11T00:38:19.715Z,978.34
2019-02-11T00:39:19.698Z,978.38
2019-02-11T00:40:19.690Z,978.39
2019-02-11T00:41:19.693Z,978.45
2019-02-11T00:42:19.654Z,978.45
2019-02-11T00:43:19.686Z,978.47
2019-02-11T00:44:19.666Z,978.48
2019-02-11T00:45:19.647Z,978.48
2019-02-11T00:46:19.620Z,978.52
2019-02-11T00:47:19.602Z,978.54
2019-02-11T00:48:19.593Z,978.61
2019-02-11T00:49:19.589Z,978.59
2019-02-11T00:50:19.596Z,978.55
2019-02-11T00:51:19.580Z,978.68
2019-02-11T00:52:19.580Z,978.65
2019-02-11T00:53:19.565Z,978.68
2019-02-11T00:54:19.540Z,978.70
2019-02-11T00:55:19.532Z,978.78
2019-02-11T00:56:19.529Z,978.71
2019-02-11T00:57:19.505Z,978.74
2019-02-11T00:58:19.494Z,978.81
2019-02-11T00:59:20.985Z,978.78
2019-02-11T01:00:19.483Z,978.82
2019-02-11T01:01:19.487Z,978.82
2019-02-11T01:02:19.484Z,978.89
2019-02-11T01:03:19.441Z,978.86
2019-02-11T01:04:19.427Z,978.95
2019-02-11T01:05:19.422Z,978.90
2019-02-11T01:06:19.432Z,978.90
2019-02-11T01:07:19.400Z,978.96
2019-02-11T01:08:19.400Z,979.02
2019-02-11T01:09:19.383Z,978.99
2019-02-11T01:10:19.421Z,979.03
2019-02-11T01:11:19.352Z,979.05
2019-02-11T01:12:19.353Z,979.14
2019-02-11T01:13:27.254Z,979.12
2019-02-11T01:14:20.365Z,979.18
2019-02-11T01:15:19.323Z,979.22
2019-02-11T01:16:19.306Z,979.23
2019-02-11T01:17:19.303Z,979.22
2019-02-11T01:18:19.296Z,979.27
2019-02-11T01:19:19.292Z,979.21
2019-02-11T01:20:19.291Z,979.26
2019-02-11T01:21:19.246Z,979.33
2019-02-11T01:22:19.272Z,979.38
2019-02-11T01:23:19.229Z,979.34
2019-02-11T01:24:19.217Z,979.35
2019-02-11T01:25:19.220Z,979.36
2019-02-11T01:26:19.197Z,979.43
2019-02-11T01:27:19.416Z,979.38
2019-02-11T01:28:19.178Z,979.46
2019-02-11T01:29:19.170Z,979.42
2019-02-11T01:30:19.169Z,979.51
2019-02-11T01:31:19.184Z,979.47
2019-02-11T01:32:19.138Z,979.51
2019-02-11T01:33:19.159Z,979.52
2019-02-11T01:34:19.116Z,979.56
2019-02-11T01:35:19.107Z,979.58
2019-02-11T01:36:19.135Z,979.59
2019-02-11T01:37:19.082Z,979.63
2019-02-11T01:38:19.074Z,979.69
2019-02-11T01:39:19.056Z,979.69
2019-02-11T01:40:19.052Z,979.66
2019-02-11T01:41:19.072Z,979.72
2019-02-11T01:42:19.040Z,979.71
2019-02-11T01:43:19.039Z,979.72
2019-02-11T01:44:19.014Z,979.77
2019-02-11T01:45:18.997Z,979.75
2019-02-11T01:46:18.981Z,979.77
2019-02-11T01:47:18.995Z,979.79
2019-02-11T01:48:19.181Z,979.73
2019-02-11T01:49:18.969Z,979.80
2019-02-11T01:50:18.964Z,979.84
2019-02-11T01:51:18.938Z,979.79
2019-02-11T01:52:18.919Z,979.85
2019-02-11T01:53:18.934Z,979.89
2019-02-11T01:54:18.902Z,979.88
2019-02-11T01:55:18.892Z,979.88
2019-02-11T01:56:18.897Z,979.91
2019-02-11T01:57:18.920Z,979.94
2019-02-11T01:58:18.868Z,979.98
2019-02-11T01:59:18.858Z,979.98
2019-02-11T02:00:18.837Z,980.02
2019-02-11T02:01:18.884Z,980.03
2019-02-11T02:02:18.834Z,980.03
2019-02-11T02:03:18.836Z,980.08
2019-02-11T02:04:18.838Z,980.02
2019-02-11T02:05:18.859Z,980.16
2019-02-11T02:06:18.819Z,980.12
2019-02-11T02:07:18.803Z,980.14
2019-02-11T02:08:18.782Z,980.15
2019-02-11T02:09:18.752Z,980.11
2019-02-11T02:10:18.745Z,980.19
2019-02-11T02:11:18.740Z,980.11
2019-02-11T02:12:18.748Z,980.15
2019-02-11T02:13:18.721Z,980.19
2019-02-11T02:14:18.730Z,980.25
2019-02-11T02:15:18.687Z,980.34
2019-02-11T02:16:18.717Z,980.28
2019-02-11T02:17:18.681Z,980.36
2019-02-11T02:18:18.648Z,980.35
2019-02-11T02:19:18.649Z,980.35
2019-02-11T02:20:18.631Z,980.29
2019-02-11T02:21:18.630Z,980.30
2019-02-11T02:22:18.624Z,980.37
2019-02-11T02:23:18.592Z,980.36
2019-02-11T02:24:18.599Z,980.38
2019-02-11T02:25:18.585Z,980.46
2019-02-11T02:26:18.569Z,980.42
2019-02-11T02:27:18.562Z,980.36
2019-02-11T02:28:18.563Z,980.36
2019-02-11T02:29:18.560Z,980.45
2019-02-11T02:30:18.750Z,980.45
2019-02-11T02:31:18.537Z,980.52
2019-02-11T02:32:18.525Z,980.50
2019-02-11T02:33:18.496Z,980.54
2019-02-11T02:34:18.505Z,980.46
2019-02-11T02:35:18.490Z,980.53
2019-02-11T02:36:18.516Z,980.45
2019-02-11T02:37:18.451Z,980.56
2019-02-11T02:38:18.455Z,980.51
2019-02-11T02:39:18.457Z,980.64
2019-02-11T02:40:18.462Z,980.53
2019-02-11T02:41:18.410Z,980.55
2019-02-11T02:42:18.406Z,980.55
2019-02-11T02:43:18.437Z,980.59
2019-02-11T02:44:18.410Z,980.59
2019-02-11T02:45:18.374Z,980.65
2019-02-11T02:46:18.370Z,980.68
2019-02-11T02:47:18.374Z,980.56
2019-02-11T02:48:18.352Z,980.68
2019-02-11T02:49:18.345Z,980.66
2019-02-11T02:50:18.349Z,980.74
2019-02-11T02:51:18.541Z,980.73
2019-02-11T02:52:18.318Z,980.74
2019-02-11T02:53:18.297Z,980.67
2019-02-11T02:54:18.329Z,980.73
2019-02-11T02:55:18.277Z,980.68
2019-02-11T02:56:18.272Z,980.71
2019-02-11T02:57:18.240Z,980.72
2019-02-11T02:58:18.261Z,980.76
2019-02-11T02:59:18.249Z,980.81
2019-02-11T03:00:18.292Z,980.82
2019-02-11T03:01:18.245Z,980.88
2019-02-11T03:02:18.232Z,980.86
2019-02-11T03:03:18.208Z,980.89
2019-02-11T03:04:18.197Z,980.93
2019-02-11T03:05:18.179Z,980.93
2019-02-11T03:06:18.157Z,980.87
2019-02-11T03:07:18.172Z,980.91
2019-02-11T03:08:18.173Z,981.00
2019-02-11T03:09:18.158Z,980.99
2019-02-11T03:10:18.123Z,981.08
2019-02-11T03:11:18.215Z,981.06
2019-02-11T03:12:18.106Z,981.10
2019-02-11T03:13:18.109Z,981.07
2019-02-11T03:14:18.090Z,981.09
2019-02-11T03:15:18.108Z,981.12
2019-02-11T03:16:18.060Z,981.19
2019-02-11T03:17:18.043Z,981.23
2019-02-11T03:18:18.125Z,981.21
2019-02-11T03:19:18.026Z,981.24
2019-02-11T03:20:18.027Z,981.20
2019-02-11T03:21:17.999Z,981.28
2019-02-11T03:22:18.011Z,981.24
2019-02-11T03:23:18.006Z,981.28
2019-02-11T03:24:18.049Z,981.34
2019-02-11T03:25:18.030Z,981.27
2019-02-11T03:26:17.976Z,981.23
2019-02-11T03:27:17.995Z,981.38
2019-02-11T03:28:17.945Z,981.41
2019-02-11T03:29:18.004Z,981.42
2019-02-11T03:30:18.057Z,981.40
2019-02-11T03:31:17.933Z,981.41
2019-02-11T03:32:18.138Z,981.44
2019-02-11T03:33:17.880Z,981.45
2019-02-11T03:34:18.114Z,981.44
2019-02-11T03:35:17.981Z,981.49
2019-02-11T03:36:17.862Z,981.55
2019-02-11T03:37:17.831Z,981.51
2019-02-11T03:38:17.823Z,981.50
2019-02-11T03:39:17.873Z,981.58
2019-02-11T03:40:17.838Z,981.54
2019-02-11T03:41:17.790Z,981.64
2019-02-11T03:42:17.780Z,981.61
2019-02-11T03:43:17.796Z,981.63
2019-02-11T03:44:17.779Z,981.66
2019-02-11T03:45:17.818Z,981.70
2019-02-11T03:46:17.772Z,981.72
2019-02-11T03:47:24.472Z,981.71
2019-02-11T03:48:17.842Z,981.79
2019-02-11T03:49:18.085Z,981.75
2019-02-11T03:50:17.751Z,981.82
2019-02-11T03:51:17.700Z,981.83
2019-02-11T03:52:17.689Z,981.86
2019-02-11T03:53:17.683Z,981.88
2019-02-11T03:54:17.675Z,981.86
2019-02-11T03:55:17.884Z,981.94
2019-02-11T03:56:17.635Z,981.89
2019-02-11T03:57:18.470Z,982.16
2019-02-11T03:58:17.607Z,982.00
2019-02-11T03:59:18.518Z,981.96
2019-02-11T04:00:17.691Z,982.01
2019-02-11T04:01:17.594Z,982.06
2019-02-11T04:02:17.624Z,982.07
2019-02-11T04:03:17.627Z,982.12
2019-02-11T04:04:18.562Z,982.10
2019-02-11T04:05:18.470Z,982.10
2019-02-11T04:06:17.565Z,982.20
2019-02-11T04:07:18.475Z,982.21
2019-02-11T04:08:17.517Z,982.27
2019-02-11T04:09:17.543Z,982.31
2019-02-11T04:10:18.466Z,982.32
2019-02-11T04:11:17.481Z,982.34
2019-02-11T04:12:17.576Z,982.36
2019-02-11T04:13:17.487Z,982.42
2019-02-11T04:14:24.467Z,982.41
2019-02-11T04:15:18.497Z,982.42
2019-02-11T04:16:18.241Z,982.45
2019-02-11T04:17:17.970Z,982.51
2019-02-11T04:18:17.473Z,982.57
2019-02-11T04:19:17.424Z,982.62
2019-02-11T04:20:17.476Z,982.57
2019-02-11T04:21:17.380Z,982.64
2019-02-11T04:22:17.439Z,982.59
2019-02-11T04:23:17.406Z,982.58
2019-02-11T04:24:17.349Z,982.60
2019-02-11T04:25:17.350Z,982.69
2019-02-11T04:26:17.374Z,982.69
2019-02-11T04:27:17.305Z,982.68
2019-02-11T04:28:17.373Z,982.79
2019-02-11T04:29:17.329Z,982.82
2019-02-11T04:30:17.360Z,982.77
2019-02-11T04:31:17.266Z,982.80
2019-02-11T04:32:17.251Z,982.76
2019-02-11T04:33:18.050Z,982.84
2019-02-11T04:34:17.229Z,982.76
2019-02-11T04:35:17.218Z,982.84
2019-02-11T04:36:17.222Z,982.83
2019-02-11T04:37:17.396Z,982.85
2019-02-11T04:38:17.205Z,982.88
2019-02-11T04:39:17.195Z,982.87
2019-02-11T04:40:17.164Z,982.87
2019-02-11T04:41:17.164Z,982.90
2019-02-11T04:42:17.957Z,982.95
2019-02-11T04:43:17.280Z,982.90
2019-02-11T04:44:17.124Z,982.96
2019-02-11T04:45:17.140Z,982.98
2019-02-11T04:46:17.100Z,983.07
2019-02-11T04:47:17.093Z,983.09
2019-02-11T04:48:17.158Z,983.11
2019-02-11T04:49:17.105Z,983.15
2019-02-11T04:50:17.958Z,983.15
2019-02-11T04:51:18.011Z,983.17
2019-02-11T04:52:17.078Z,983.14
2019-02-11T04:53:17.055Z,983.21
2019-02-11T04:54:17.968Z,983.24
2019-02-11T04:55:17.042Z,983.20
2019-02-11T04:56:17.001Z,983.24
2019-02-11T04:57:16.986Z,983.28
2019-02-11T04:58:18.005Z,983.33
2019-02-11T04:59:16.977Z,983.28
2019-02-11T05:00:16.950Z,983.31
2019-02-11T05:01:16.956Z,983.35
2019-02-11T05:02:17.461Z,983.36
2019-02-11T05:03:16.943Z,983.39
2019-02-11T05:04:17.039Z,983.43
2019-02-11T05:05:16.972Z,983.38
2019-02-11T05:06:16.891Z,983.42
2019-02-11T05:07:16.980Z,983.44
2019-02-11T05:08:16.862Z,983.48
2019-02-11T05:09:17.000Z,983.52
2019-02-11T05:10:16.875Z,983.42
2019-02-11T05:11:16.900Z,983.53
2019-02-11T05:12:16.877Z,983.54
2019-02-11T05:13:16.912Z,983.46
2019-02-11T05:14:16.828Z,983.51
2019-02-11T05:15:17.464Z,983.53
2019-02-11T05:16:16.798Z,983.62
2019-02-11T05:17:16.838Z,983.58
2019-02-11T05:18:17.101Z,983.62
2019-02-11T05:19:17.193Z,983.65
2019-02-11T05:20:16.771Z,983.61
2019-02-11T05:21:16.745Z,983.73
2019-02-11T05:22:16.730Z,983.64
2019-02-11T05:23:17.509Z,983.72
2019-02-11T05:24:16.694Z,983.75
2019-02-11T05:25:16.695Z,983.71
2019-02-11T05:26:16.685Z,983.70
2019-02-11T05:27:16.672Z,983.75
2019-02-11T05:28:16.682Z,983.72
2019-02-11T05:29:16.659Z,983.78
2019-02-11T05:30:16.634Z,983.79
2019-02-11T05:31:16.617Z,983.84
2019-02-11T05:32:16.605Z,983.84
2019-02-11T05:33:16.659Z,983.89
2019-02-11T05:34:16.602Z,983.94
2019-02-11T05:35:16.602Z,983.94
2019-02-11T05:36:16.558Z,983.94
2019-02-11T05:37:16.549Z,983.97
2019-02-11T05:38:16.593Z,984.01
2019-02-11T05:39:16.685Z,984.05
2019-02-11T05:40:16.710Z,984.03
2019-02-11T05:41:16.552Z,984.03
2019-02-11T05:42:16.498Z,984.05
2019-02-11T05:43:16.484Z,984.11
2019-02-11T05:44:16.481Z,984.10
2019-02-11T05:45:16.520Z,984.09
2019-02-11T05:46:16.454Z,984.10
2019-02-11T05:47:16.481Z,984.14
2019-02-11T05:48:16.433Z,984.06
2019-02-11T05:49:16.420Z,984.11
2019-02-11T05:50:16.422Z,984.08
2019-02-11T05:51:16.416Z,984.15
2019-02-11T05:52:16.423Z,984.16
2019-02-11T05:53:16.396Z,984.10
2019-02-11T05:54:16.957Z,984.15
2019-02-11T05:55:16.437Z,984.24
2019-02-11T05:56:16.341Z,984.15
2019-02-11T05:57:16.349Z,984.29
2019-02-11T05:58:16.328Z,984.22
2019-02-11T05:59:16.317Z,984.33
2019-02-11T06:00:16.301Z,984.28
2019-02-11T06:01:16.318Z,984.36
2019-02-11T06:02:16.961Z,984.34
2019-02-11T06:03:16.283Z,984.38
2019-02-11T06:04:16.286Z,984.41
2019-02-11T06:05:16.248Z,984.46
2019-02-11T06:06:16.971Z,984.42
2019-02-11T06:07:16.953Z,984.39
2019-02-11T06:08:16.234Z,984.40
2019-02-11T06:09:16.233Z,984.46
2019-02-11T06:10:16.190Z,984.46
2019-02-11T06:11:16.190Z,984.46
2019-02-11T06:12:16.178Z,984.51
2019-02-11T06:13:16.960Z,984.42
2019-02-11T06:14:16.206Z,984.53
2019-02-11T06:15:16.158Z,984.53
2019-02-11T06:16:16.134Z,984.53
2019-02-11T06:17:16.143Z,984.57
2019-02-11T06:18:16.110Z,984.63
2019-02-11T06:19:16.137Z,984.71
2019-02-11T06:20:16.104Z,984.69
2019-02-11T06:21:16.142Z,984.72
2019-02-11T06:22:16.067Z,984.77
2019-02-11T06:23:16.064Z,984.72
2019-02-11T06:24:16.041Z,984.78
2019-02-11T06:25:16.037Z,984.80
2019-02-11T06:26:16.048Z,984.82
2019-02-11T06:27:16.022Z,984.89
2019-02-11T06:28:16.015Z,984.85
2019-02-11T06:29:16.096Z,984.88
2019-02-11T06:30:15.975Z,984.92
2019-02-11T06:31:15.977Z,985.00
2019-02-11T06:32:15.955Z,985.02
2019-02-11T06:33:15.942Z,985.09
2019-02-11T06:34:15.972Z,985.13
2019-02-11T06:35:15.930Z,985.15
2019-02-11T06:36:15.914Z,985.19
2019-02-11T06:37:15.910Z,985.20
2019-02-11T06:38:15.895Z,985.20
2019-02-11T06:39:15.883Z,985.26
2019-02-11T06:40:15.902Z,985.32
2019-02-11T06:41:15.870Z,985.34
2019-02-11T06:42:15.848Z,985.31
2019-02-11T06:43:15.832Z,985.47
2019-02-11T06:44:15.824Z,985.43
2019-02-11T06:45:15.812Z,985.45
2019-02-11T06:46:15.818Z,985.45
2019-02-11T06:47:15.819Z,985.55
2019-02-11T06:48:15.806Z,985.65
2019-02-11T06:49:15.769Z,985.65
2019-02-11T06:50:15.776Z,985.66
2019-02-11T06:51:15.756Z,985.73
2019-02-11T06:52:15.766Z,985.70
2019-02-11T06:53:15.732Z,985.74
2019-02-11T06:54:15.723Z,985.74
2019-02-11T06:55:15.718Z,985.72
2019-02-11T06:56:15.699Z,985.72
2019-02-11T06:57:15.685Z,985.75
2019-02-11T06:58:15.704Z,985.83
2019-02-11T06:59:15.660Z,985.89
2019-02-11T07:00:15.658Z,985.81
2019-02-11T07:01:15.672Z,985.87
2019-02-11T07:02:15.629Z,985.85
2019-02-11T07:03:15.632Z,985.98
2019-02-11T07:04:15.632Z,985.91
2019-02-11T07:05:15.812Z,985.96
2019-02-11T07:06:15.618Z,985.99
2019-02-11T07:07:15.602Z,986.00
2019-02-11T07:08:15.563Z,986.05
2019-02-11T07:09:15.559Z,986.02
2019-02-11T07:10:15.562Z,986.11
2019-02-11T07:11:15.544Z,986.14
2019-02-11T07:12:15.526Z,986.15
2019-02-11T07:13:15.538Z,986.22
2019-02-11T07:14:15.516Z,986.24
2019-02-11T07:15:21.679Z,986.32
2019-02-11T07:16:16.492Z,986.37
2019-02-11T07:17:15.465Z,986.33
2019-02-11T07:18:15.468Z,986.39
2019-02-11T07:19:15.457Z,986.43
2019-02-11T07:20:15.435Z,986.41
2019-02-11T07:21:15.424Z,986.47
2019-02-11T07:22:15.439Z,986.49
2019-02-11T07:23:15.427Z,986.49
2019-02-11T07:24:15.415Z,986.53
2019-02-11T07:25:16.663Z,986.49
2019-02-11T07:26:15.374Z,986.59
2019-02-11T07:27:15.359Z,986.62
2019-02-11T07:28:15.366Z,986.57
2019-02-11T07:29:15.359Z,986.62
2019-02-11T07:30:15.512Z,986.67
2019-02-11T07:31:15.316Z,986.65
2019-02-11T07:32:15.317Z,986.68
2019-02-11T07:33:15.304Z,986.69
2019-02-11T07:34:15.288Z,986.71
2019-02-11T07:35:15.293Z,986.70
2019-02-11T07:36:15.295Z,986.80
2019-02-11T07:37:15.253Z,986.78
2019-02-11T07:38:15.254Z,986.77
2019-02-11T07:39:15.239Z,986.78
2019-02-11T07:40:15.264Z,986.81
2019-02-11T07:41:15.230Z,986.84
2019-02-11T07:42:15.229Z,986.82
2019-02-11T07:43:15.198Z,986.89
2019-02-11T07:44:15.223Z,986.96
2019-02-11T07:45:15.972Z,986.88
2019-02-11T07:46:15.162Z,986.89
2019-02-11T07:47:15.258Z,986.92
2019-02-11T07:48:15.165Z,987.01
2019-02-11T07:49:15.950Z,986.98
2019-02-11T07:50:15.120Z,986.98
2019-02-11T07:51:15.108Z,987.01
2019-02-11T07:52:15.104Z,987.06
2019-02-11T07:53:15.121Z,987.06
2019-02-11T07:54:15.126Z,987.08
2019-02-11T07:55:22.979Z,987.05
2019-02-11T07:56:15.947Z,987.08
2019-02-11T07:57:15.046Z,987.08
2019-02-11T07:58:15.032Z,987.12
2019-02-11T07:59:15.025Z,987.11
2019-02-11T08:00:15.282Z,987.14
2019-02-11T08:01:15.007Z,987.14
2019-02-11T08:02:14.986Z,987.19
2019-02-11T08:03:14.977Z,987.23
2019-02-11T08:04:15.013Z,987.27
2019-02-11T08:05:14.991Z,987.31
2019-02-11T08:06:14.955Z,987.28
2019-02-11T08:07:14.953Z,987.28
2019-02-11T08:08:15.119Z,987.30
2019-02-11T08:09:14.910Z,987.28
2019-02-11T08:10:14.906Z,987.27
2019-02-11T08:11:14.932Z,987.30
2019-02-11T08:12:14.884Z,987.33
2019-02-11T08:13:14.881Z,987.29
2019-02-11T08:14:14.863Z,987.38
2019-02-11T08:15:14.856Z,987.40
2019-02-11T08:16:14.848Z,987.46
2019-02-11T08:17:14.866Z,987.42
2019-02-11T08:18:14.815Z,987.51
2019-02-11T08:19:14.823Z,987.51
2019-02-11T08:20:14.798Z,987.48
2019-02-11T08:21:14.787Z,987.54
2019-02-11T08:22:14.807Z,987.54
2019-02-11T08:23:14.806Z,987.52
2019-02-11T08:24:14.764Z,987.53
2019-02-11T08:25:14.760Z,987.52
2019-02-11T08:26:14.765Z,987.61
2019-02-11T08:27:14.728Z,987.63
2019-02-11T08:28:19.657Z,987.62
2019-02-11T08:29:16.083Z,987.65
2019-02-11T08:30:14.697Z,987.73
2019-02-11T08:31:14.704Z,987.73
2019-02-11T08:32:14.708Z,987.74
2019-02-11T08:33:14.661Z,987.78
2019-02-11T08:34:14.653Z,987.80
2019-02-11T08:35:14.739Z,987.83
2019-02-11T08:36:14.655Z,987.83
2019-02-11T08:37:16.474Z,987.80
2019-02-11T08:38:14.606Z,987.82
2019-02-11T08:39:14.604Z,987.83
2019-02-11T08:40:14.628Z,987.82
2019-02-11T08:41:14.661Z,987.93
2019-02-11T08:42:14.631Z,987.87
2019-02-11T08:43:14.554Z,987.89
2019-02-11T08:44:14.591Z,987.98
2019-02-11T08:45:14.536Z,987.93
2019-02-11T08:46:14.539Z,987.97
2019-02-11T08:47:14.601Z,987.99
2019-02-11T08:48:14.538Z,988.04
2019-02-11T08:49:14.503Z,988.03
2019-02-11T08:50:14.511Z,988.19
2019-02-11T08:51:14.471Z,988.17
2019-02-11T08:52:14.473Z,988.19
2019-02-11T08:53:14.514Z,988.23
2019-02-11T08:54:14.467Z,988.21
2019-02-11T08:55:14.435Z,988.25
2019-02-11T08:56:14.416Z,988.33
2019-02-11T08:57:14.412Z,988.36
2019-02-11T08:58:14.427Z,988.23
2019-02-11T08:59:14.407Z,988.29
2019-02-11T09:00:14.446Z,988.35
2019-02-11T09:01:14.371Z,988.33
2019-02-11T09:02:14.374Z,988.39
2019-02-11T09:03:14.353Z,988.36
2019-02-11T09:04:18.896Z,988.40
2019-02-11T09:05:14.372Z,988.40
2019-02-11T09:06:14.313Z,988.49
2019-02-11T09:07:14.335Z,988.53
2019-02-11T09:08:14.299Z,988.46
2019-02-11T09:09:14.306Z,988.52
2019-02-11T09:10:14.941Z,988.52
2019-02-11T09:11:14.472Z,988.56
2019-02-11T09:12:14.266Z,988.56
2019-02-11T09:13:14.271Z,988.54
2019-02-11T09:14:35.284Z,988.56
2019-02-11T09:15:14.229Z,988.61
2019-02-11T09:16:14.221Z,988.60
2019-02-11T09:17:14.196Z,988.51
2019-02-11T09:18:14.204Z,988.50
2019-02-11T09:19:14.205Z,988.47
2019-02-11T09:20:14.181Z,988.52
2019-02-11T09:21:14.172Z,988.60
2019-02-11T09:22:14.146Z,988.58
2019-02-11T09:23:14.137Z,988.56
2019-02-11T09:24:14.176Z,988.61
2019-02-11T09:25:14.125Z,988.68
2019-02-11T09:26:14.119Z,988.65
2019-02-11T09:27:14.155Z,988.54
2019-02-11T09:28:14.093Z,988.66
2019-02-11T09:29:14.085Z,988.59
2019-02-11T09:30:14.090Z,988.67
2019-02-11T09:31:14.048Z,988.72
2019-02-11T09:32:14.087Z,988.61
2019-02-11T09:33:14.032Z,988.74
2019-02-11T09:34:14.033Z,988.72
2019-02-11T09:35:14.023Z,988.81
2019-02-11T09:36:14.019Z,988.80
2019-02-11T09:37:14.028Z,988.87
2019-02-11T09:38:13.992Z,988.83
2019-02-11T09:39:13.994Z,988.86
2019-02-11T09:40:13.972Z,988.88
2019-02-11T09:41:13.946Z,988.95
2019-02-11T09:42:13.930Z,988.99
2019-02-11T09:43:13.974Z,989.02
2019-02-11T09:44:13.924Z,989.01
2019-02-11T09:45:13.927Z,989.06
2019-02-11T09:46:13.896Z,989.11
2019-02-11T09:47:13.884Z,989.11
2019-02-11T09:48:13.875Z,989.09
2019-02-11T09:49:13.880Z,989.09
2019-02-11T09:50:13.866Z,989.11
2019-02-11T09:51:13.845Z,989.15
2019-02-11T09:52:13.830Z,989.19
2019-02-11T09:53:14.058Z,989.26
2019-02-11T09:54:13.846Z,989.25
2019-02-11T09:55:13.870Z,989.32
2019-02-11T09:56:13.815Z,989.38
2019-02-11T09:57:13.784Z,989.33
2019-02-11T09:58:13.762Z,989.30
2019-02-11T09:59:13.755Z,989.37
2019-02-11T10:00:13.761Z,989.38
2019-02-11T10:01:13.760Z,989.45
2019-02-11T10:02:13.729Z,989.37
2019-02-11T10:03:13.713Z,989.36
2019-02-11T10:04:13.730Z,989.39
2019-02-11T10:05:13.701Z,989.47
2019-02-11T10:06:13.676Z,989.47
2019-02-11T10:07:13.756Z,989.46
2019-02-11T10:08:13.658Z,989.47
2019-02-11T10:09:13.664Z,989.48
2019-02-11T10:10:13.968Z,989.51
2019-02-11T10:11:13.627Z,989.52
2019-02-11T10:12:21.227Z,989.53
2019-02-11T10:13:14.621Z,989.58
2019-02-11T10:14:13.805Z,989.61
2019-02-11T10:15:13.605Z,989.62
2019-02-11T10:16:13.615Z,989.64
2019-02-11T10:17:13.619Z,989.71
2019-02-11T10:18:13.545Z,989.67
2019-02-11T10:19:13.587Z,989.70
2019-02-11T10:20:13.540Z,989.67
2019-02-11T10:21:13.521Z,989.65
2019-02-11T10:22:13.546Z,989.73
2019-02-11T10:23:13.552Z,989.70
2019-02-11T10:24:13.482Z,989.66
2019-02-11T10:25:13.511Z,989.69
2019-02-11T10:26:13.471Z,989.70
2019-02-11T10:27:13.464Z,989.74
2019-02-11T10:28:13.440Z,989.68
2019-02-11T10:29:13.454Z,989.77
2019-02-11T10:30:13.446Z,989.76
2019-02-11T10:31:13.423Z,989.71
2019-02-11T10:32:13.425Z,989.80
2019-02-11T10:33:13.390Z,989.78
2019-02-11T10:34:13.389Z,989.86
2019-02-11T10:35:13.430Z,989.83
2019-02-11T10:36:13.378Z,989.81
2019-02-11T10:37:13.349Z,989.84
2019-02-11T10:38:13.372Z,989.79
2019-02-11T10:39:13.328Z,989.79
2019-02-11T10:40:13.337Z,989.81
2019-02-11T10:41:13.314Z,989.81
2019-02-11T10:42:13.310Z,989.81
2019-02-11T10:43:13.293Z,989.82
2019-02-11T10:44:13.302Z,989.91
2019-02-11T10:45:13.280Z,989.89
2019-02-11T10:46:20.691Z,989.94
2019-02-11T10:47:14.251Z,989.97
2019-02-11T10:48:13.269Z,990.00
2019-02-11T10:49:13.223Z,989.98
2019-02-11T10:50:13.251Z,989.99
2019-02-11T10:51:13.228Z,989.94
2019-02-11T10:52:13.186Z,989.99
2019-02-11T10:53:13.175Z,989.99
2019-02-11T10:54:13.179Z,989.98
2019-02-11T10:55:13.167Z,990.06
2019-02-11T10:56:13.181Z,990.04
2019-02-11T10:57:13.942Z,990.07
2019-02-11T10:58:13.128Z,990.11
2019-02-11T10:59:13.111Z,990.09
2019-02-11T11:00:13.460Z,990.13
2019-02-11T11:01:13.445Z,990.15
2019-02-11T11:02:13.192Z,990.14
2019-02-11T11:03:13.108Z,990.19
2019-02-11T11:04:13.074Z,990.20
2019-02-11T11:05:13.071Z,990.21
2019-02-11T11:06:13.995Z,990.24
2019-02-11T11:07:13.094Z,990.27
2019-02-11T11:08:13.029Z,990.26
2019-02-11T11:09:14.015Z,990.31
2019-02-11T11:10:13.016Z,990.23
2019-02-11T11:11:13.012Z,990.29
2019-02-11T11:12:13.007Z,990.29
2019-02-11T11:13:12.980Z,990.33
2019-02-11T11:14:13.008Z,990.35
2019-02-11T11:15:12.982Z,990.38
2019-02-11T11:16:12.948Z,990.35
2019-02-11T11:17:12.942Z,990.35
2019-02-11T11:18:13.185Z,990.33
2019-02-11T11:19:12.902Z,990.35
2019-02-11T11:20:12.919Z,990.36
2019-02-11T11:21:12.900Z,990.36
2019-02-11T11:22:12.880Z,990.38
2019-02-11T11:23:12.862Z,990.46
2019-02-11T11:24:12.905Z,990.39
2019-02-11T11:25:12.864Z,990.48
2019-02-11T11:26:12.836Z,990.47
2019-02-11T11:27:12.819Z,990.51
2019-02-11T11:28:12.805Z,990.53
2019-02-11T11:29:12.795Z,990.60
2019-02-11T11:30:12.828Z,990.65
2019-02-11T11:31:12.784Z,990.62
2019-02-11T11:32:12.770Z,990.66
2019-02-11T11:33:12.752Z,990.68
2019-02-11T11:34:12.744Z,990.66
2019-02-11T11:35:12.741Z,990.69
2019-02-11T11:36:12.737Z,990.80
2019-02-11T11:37:13.407Z,990.79
2019-02-11T11:38:12.706Z,990.88
2019-02-11T11:39:12.918Z,990.83
2019-02-11T11:40:12.694Z,990.85
2019-02-11T11:41:12.668Z,990.77
2019-02-11T11:42:12.691Z,990.91
2019-02-11T11:43:12.711Z,990.89
2019-02-11T11:44:12.654Z,990.94
2019-02-11T11:45:12.646Z,990.99
2019-02-11T11:46:12.616Z,991.02
2019-02-11T11:47:12.606Z,991.09
2019-02-11T11:48:12.601Z,991.03
2019-02-11T11:49:12.602Z,991.03
2019-02-11T11:50:12.606Z,991.04
2019-02-11T11:51:12.558Z,991.03
2019-02-11T11:52:12.555Z,991.06
2019-02-11T11:53:12.545Z,991.10
2019-02-11T11:54:12.533Z,991.13
2019-02-11T11:55:12.557Z,991.18
2019-02-11T11:56:12.621Z,991.21
2019-02-11T11:57:12.503Z,991.28
2019-02-11T11:58:12.496Z,991.18
2019-02-11T11:59:12.485Z,991.26
2019-02-11T12:00:12.505Z,991.26
2019-02-11T12:01:12.499Z,991.26
2019-02-11T12:02:15.992Z,991.30
2019-02-11T12:03:12.431Z,991.36
2019-02-11T12:04:12.450Z,991.39
2019-02-11T12:05:12.423Z,991.35
2019-02-11T12:06:12.429Z,991.42
2019-02-11T12:07:12.412Z,991.40
2019-02-11T12:08:12.402Z,991.40
2019-02-11T12:09:12.397Z,991.43
2019-02-11T12:10:12.366Z,991.49
2019-02-11T12:11:12.391Z,991.50
2019-02-11T12:12:13.411Z,991.49
2019-02-11T12:13:22.465Z,991.50
2019-02-11T12:14:13.319Z,991.58
2019-02-11T12:15:12.327Z,991.59
2019-02-11T12:16:12.461Z,991.57
2019-02-11T12:17:12.324Z,991.57
2019-02-11T12:18:12.287Z,991.62
2019-02-11T12:19:12.268Z,991.64
2019-02-11T12:20:12.353Z,991.60
2019-02-11T12:21:12.269Z,991.64
2019-02-11T12:22:13.247Z,991.75
2019-02-11T12:23:12.234Z,991.76
2019-02-11T12:24:12.228Z,991.76
2019-02-11T12:25:12.203Z,991.84
2019-02-11T12:26:12.277Z,991.78
2019-02-11T12:27:12.197Z,991.80
2019-02-11T12:28:12.173Z,991.82